sensor_id;sensor_type;location;lat;lon;timestamp;P1;durP1;ratioP1;P2;durP2;ratioP2
43152;SDS011;28756;49.064;9.290;2023-12-22T00:02:17;0.90;;;0.60;;
43152;SDS011;28756;49.064;9.290;2023-12-22T00:04:43;0.73;;;0.45;;
43152;SDS011;28756;49.064;9.290;2023-12-22T00:07:09;1.23;;;0.50;;
43152;SDS011;28756;49.064;9.290;2023-12-22T00:09:34;0.75;;;0.50;;
43152;SDS011;28756;49.064;9.290;2023-12-22T00:12:00;0.70;;;0.50;;
43152;SDS011;28756;49.064;9.290;2023-12-22T00:14:25;1.52;;;0.50;;
43152;SDS011;28756;49.064;9.290;2023-12-22T00:16:51;1.25;;;0.40;;
43152;SDS011;28756;49.064;9.290;2023-12-22T00:19:16;1.65;;;0.50;;
43152;SDS011;28756;49.064;9.290;2023-12-22T00:21:42;1.17;;;0.40;;
43152;SDS011;28756;49.064;9.290;2023-12-22T00:24:08;0.60;;;0.30;;
43152;SDS011;28756;49.064;9.290;2023-12-22T00:26:33;1.17;;;0.50;;
43152;SDS011;28756;49.064;9.290;2023-12-22T00:28:59;1.15;;;0.52;;
43152;SDS011;28756;49.064;9.290;2023-12-22T00:31:24;1.13;;;0.50;;
43152;SDS011;28756;49.064;9.290;2023-12-22T00:33:50;0.80;;;0.40;;
43152;SDS011;28756;49.064;9.290;2023-12-22T00:36:15;2.22;;;0.50;;
43152;SDS011;28756;49.064;9.290;2023-12-22T00:38:43;1.17;;;0.40;;
43152;SDS011;28756;49.064;9.290;2023-12-22T00:41:09;1.00;;;0.50;;
43152;SDS011;28756;49.064;9.290;2023-12-22T00:43:35;0.43;;;0.30;;
43152;SDS011;28756;49.064;9.290;2023-12-22T00:46:01;0.50;;;0.40;;
43152;SDS011;28756;49.064;9.290;2023-12-22T00:48:27;1.75;;;0.63;;
43152;SDS011;28756;49.064;9.290;2023-12-22T00:50:53;0.50;;;0.30;;
43152;SDS011;28756;49.064;9.290;2023-12-22T00:53:18;0.75;;;0.30;;
43152;SDS011;28756;49.064;9.290;2023-12-22T00:55:44;0.55;;;0.30;;
43152;SDS011;28756;49.064;9.290;2023-12-22T00:58:10;0.85;;;0.40;;
43152;SDS011;28756;49.064;9.290;2023-12-22T01:00:36;0.68;;;0.30;;
43152;SDS011;28756;49.064;9.290;2023-12-22T01:03:01;1.23;;;0.40;;
43152;SDS011;28756;49.064;9.290;2023-12-22T01:05:28;1.20;;;0.50;;
43152;SDS011;28756;49.064;9.290;2023-12-22T01:07:53;2.63;;;1.60;;
43152;SDS011;28756;49.064;9.290;2023-12-22T01:10:19;1.75;;;1.00;;
43152;SDS011;28756;49.064;9.290;2023-12-22T01:12:44;1.25;;;0.73;;
43152;SDS011;28756;49.064;9.290;2023-12-22T01:15:10;0.95;;;0.63;;
43152;SDS011;28756;49.064;9.290;2023-12-22T01:17:35;1.00;;;0.60;;
43152;SDS011;28756;49.064;9.290;2023-12-22T01:20:01;1.42;;;0.50;;
43152;SDS011;28756;49.064;9.290;2023-12-22T01:22:27;1.90;;;0.93;;
43152;SDS011;28756;49.064;9.290;2023-12-22T01:24:53;1.02;;;0.73;;
43152;SDS011;28756;49.064;9.290;2023-12-22T01:27:18;2.67;;;0.75;;
43152;SDS011;28756;49.064;9.290;2023-12-22T01:29:44;0.82;;;0.43;;
43152;SDS011;28756;49.064;9.290;2023-12-22T01:32:10;0.60;;;0.38;;
43152;SDS011;28756;49.064;9.290;2023-12-22T01:34:36;0.90;;;0.30;;
43152;SDS011;28756;49.064;9.290;2023-12-22T01:37:01;3.85;;;0.93;;
43152;SDS011;28756;49.064;9.290;2023-12-22T01:39:27;0.70;;;0.40;;
43152;SDS011;28756;49.064;9.290;2023-12-22T01:41:53;1.42;;;0.47;;
43152;SDS011;28756;49.064;9.290;2023-12-22T01:44:18;1.35;;;0.50;;
43152;SDS011;28756;49.064;9.290;2023-12-22T01:46:44;0.38;;;0.38;;
43152;SDS011;28756;49.064;9.290;2023-12-22T01:49:10;0.45;;;0.40;;
43152;SDS011;28756;49.064;9.290;2023-12-22T01:51:36;0.60;;;0.40;;
43152;SDS011;28756;49.064;9.290;2023-12-22T01:54:04;0.75;;;0.40;;
43152;SDS011;28756;49.064;9.290;2023-12-22T01:56:30;2.17;;;0.93;;
43152;SDS011;28756;49.064;9.290;2023-12-22T01:58:57;1.35;;;0.57;;
43152;SDS011;28756;49.064;9.290;2023-12-22T02:01:24;1.45;;;0.82;;
43152;SDS011;28756;49.064;9.290;2023-12-22T02:03:51;1.08;;;0.60;;
43152;SDS011;28756;49.064;9.290;2023-12-22T02:06:17;0.60;;;0.40;;
43152;SDS011;28756;49.064;9.290;2023-12-22T02:08:44;1.02;;;0.60;;
43152;SDS011;28756;49.064;9.290;2023-12-22T02:11:11;1.40;;;0.63;;
43152;SDS011;28756;49.064;9.290;2023-12-22T02:13:37;2.05;;;0.40;;
43152;SDS011;28756;49.064;9.290;2023-12-22T02:22:07;1.17;;;0.60;;
43152;SDS011;28756;49.064;9.290;2023-12-22T02:24:33;1.30;;;0.77;;
43152;SDS011;28756;49.064;9.290;2023-12-22T02:27:45;2.95;;;1.20;;
43152;SDS011;28756;49.064;9.290;2023-12-22T02:29:58;6.78;;;2.65;;
43152;SDS011;28756;49.064;9.290;2023-12-22T02:32:34;8.90;;;2.72;;
43152;SDS011;28756;49.064;9.290;2023-12-22T02:35:03;5.20;;;2.13;;
43152;SDS011;28756;49.064;9.290;2023-12-22T02:37:32;2.13;;;1.02;;
43152;SDS011;28756;49.064;9.290;2023-12-22T02:39:57;1.88;;;0.85;;
43152;SDS011;28756;49.064;9.290;2023-12-22T02:42:23;2.58;;;0.68;;
43152;SDS011;28756;49.064;9.290;2023-12-22T02:44:54;6.68;;;2.20;;
43152;SDS011;28756;49.064;9.290;2023-12-22T02:47:21;6.43;;;1.70;;
43152;SDS011;28756;49.064;9.290;2023-12-22T02:49:47;3.58;;;1.33;;
43152;SDS011;28756;49.064;9.290;2023-12-22T02:52:13;2.85;;;1.20;;
43152;SDS011;28756;49.064;9.290;2023-12-22T02:54:38;4.32;;;1.10;;
43152;SDS011;28756;49.064;9.290;2023-12-22T02:57:05;4.05;;;1.20;;
43152;SDS011;28756;49.064;9.290;2023-12-22T02:59:32;4.82;;;1.20;;
43152;SDS011;28756;49.064;9.290;2023-12-22T03:01:57;3.88;;;1.20;;
43152;SDS011;28756;49.064;9.290;2023-12-22T03:04:23;4.18;;;1.20;;
43152;SDS011;28756;49.064;9.290;2023-12-22T03:06:48;3.17;;;0.93;;
43152;SDS011;28756;49.064;9.290;2023-12-22T03:09:14;5.13;;;1.63;;
43152;SDS011;28756;49.064;9.290;2023-12-22T03:11:39;5.47;;;1.30;;
43152;SDS011;28756;49.064;9.290;2023-12-22T03:14:05;3.92;;;0.90;;
43152;SDS011;28756;49.064;9.290;2023-12-22T03:16:30;3.53;;;1.10;;
43152;SDS011;28756;49.064;9.290;2023-12-22T03:18:56;4.88;;;1.50;;
43152;SDS011;28756;49.064;9.290;2023-12-22T03:21:22;3.50;;;0.90;;
43152;SDS011;28756;49.064;9.290;2023-12-22T03:23:47;4.70;;;1.00;;
43152;SDS011;28756;49.064;9.290;2023-12-22T03:26:13;5.28;;;1.30;;
43152;SDS011;28756;49.064;9.290;2023-12-22T03:28:38;2.90;;;1.10;;
43152;SDS011;28756;49.064;9.290;2023-12-22T03:31:04;2.65;;;1.00;;
43152;SDS011;28756;49.064;9.290;2023-12-22T03:33:31;4.93;;;1.30;;
43152;SDS011;28756;49.064;9.290;2023-12-22T03:35:57;3.67;;;0.75;;
43152;SDS011;28756;49.064;9.290;2023-12-22T03:38:22;3.75;;;1.20;;
43152;SDS011;28756;49.064;9.290;2023-12-22T03:40:48;6.43;;;1.33;;
43152;SDS011;28756;49.064;9.290;2023-12-22T03:43:14;6.88;;;1.20;;
43152;SDS011;28756;49.064;9.290;2023-12-22T03:45:39;3.35;;;1.10;;
43152;SDS011;28756;49.064;9.290;2023-12-22T03:48:05;4.32;;;1.20;;
43152;SDS011;28756;49.064;9.290;2023-12-22T03:50:31;5.28;;;1.20;;
43152;SDS011;28756;49.064;9.290;2023-12-22T03:52:56;2.78;;;0.88;;
43152;SDS011;28756;49.064;9.290;2023-12-22T03:55:22;4.28;;;1.27;;
43152;SDS011;28756;49.064;9.290;2023-12-22T03:57:47;5.57;;;1.70;;
43152;SDS011;28756;49.064;9.290;2023-12-22T04:00:13;4.07;;;1.00;;
43152;SDS011;28756;49.064;9.290;2023-12-22T04:02:41;5.55;;;1.30;;
43152;SDS011;28756;49.064;9.290;2023-12-22T04:05:06;4.30;;;1.15;;
43152;SDS011;28756;49.064;9.290;2023-12-22T04:07:32;4.38;;;1.13;;
43152;SDS011;28756;49.064;9.290;2023-12-22T04:09:58;6.60;;;1.45;;
43152;SDS011;28756;49.064;9.290;2023-12-22T04:12:24;7.53;;;1.70;;
43152;SDS011;28756;49.064;9.290;2023-12-22T04:14:49;4.45;;;1.20;;
43152;SDS011;28756;49.064;9.290;2023-12-22T04:17:15;6.10;;;1.30;;
43152;SDS011;28756;49.064;9.290;2023-12-22T04:19:40;5.85;;;1.25;;
43152;SDS011;28756;49.064;9.290;2023-12-22T04:22:06;5.32;;;1.40;;
43152;SDS011;28756;49.064;9.290;2023-12-22T04:24:31;4.43;;;1.02;;
43152;SDS011;28756;49.064;9.290;2023-12-22T04:26:57;2.63;;;1.00;;
43152;SDS011;28756;49.064;9.290;2023-12-22T04:29:23;2.90;;;1.00;;
43152;SDS011;28756;49.064;9.290;2023-12-22T04:31:48;3.80;;;0.90;;
43152;SDS011;28756;49.064;9.290;2023-12-22T04:34:14;4.70;;;1.13;;
43152;SDS011;28756;49.064;9.290;2023-12-22T04:36:40;4.47;;;1.15;;
43152;SDS011;28756;49.064;9.290;2023-12-22T04:39:06;2.60;;;0.90;;
43152;SDS011;28756;49.064;9.290;2023-12-22T04:41:32;3.40;;;0.93;;
43152;SDS011;28756;49.064;9.290;2023-12-22T04:43:57;3.30;;;0.88;;
43152;SDS011;28756;49.064;9.290;2023-12-22T04:46:23;2.97;;;0.85;;
43152;SDS011;28756;49.064;9.290;2023-12-22T04:48:48;3.28;;;0.82;;
43152;SDS011;28756;49.064;9.290;2023-12-22T04:51:14;4.03;;;1.10;;
43152;SDS011;28756;49.064;9.290;2023-12-22T04:53:40;7.38;;;1.45;;
43152;SDS011;28756;49.064;9.290;2023-12-22T04:56:06;5.40;;;1.67;;
43152;SDS011;28756;49.064;9.290;2023-12-22T04:58:31;6.93;;;1.35;;
43152;SDS011;28756;49.064;9.290;2023-12-22T05:00:57;2.88;;;1.00;;
43152;SDS011;28756;49.064;9.290;2023-12-22T05:03:24;4.95;;;1.00;;
43152;SDS011;28756;49.064;9.290;2023-12-22T05:05:49;6.40;;;1.30;;
43152;SDS011;28756;49.064;9.290;2023-12-22T05:08:15;4.88;;;1.10;;
43152;SDS011;28756;49.064;9.290;2023-12-22T05:10:41;5.15;;;1.42;;
43152;SDS011;28756;49.064;9.290;2023-12-22T05:13:06;4.57;;;1.00;;
43152;SDS011;28756;49.064;9.290;2023-12-22T05:15:32;3.58;;;0.93;;
43152;SDS011;28756;49.064;9.290;2023-12-22T05:17:58;2.85;;;1.15;;
43152;SDS011;28756;49.064;9.290;2023-12-22T05:20:23;4.38;;;1.05;;
43152;SDS011;28756;49.064;9.290;2023-12-22T05:22:49;3.63;;;0.90;;
43152;SDS011;28756;49.064;9.290;2023-12-22T05:25:14;2.28;;;0.85;;
43152;SDS011;28756;49.064;9.290;2023-12-22T05:27:40;4.05;;;1.00;;
43152;SDS011;28756;49.064;9.290;2023-12-22T05:30:08;5.80;;;1.30;;
43152;SDS011;28756;49.064;9.290;2023-12-22T05:32:34;6.75;;;1.40;;
43152;SDS011;28756;49.064;9.290;2023-12-22T05:34:59;3.38;;;1.30;;
43152;SDS011;28756;49.064;9.290;2023-12-22T05:37:25;6.47;;;1.20;;
43152;SDS011;28756;49.064;9.290;2023-12-22T05:39:50;7.10;;;1.20;;
43152;SDS011;28756;49.064;9.290;2023-12-22T05:42:16;4.22;;;1.25;;
43152;SDS011;28756;49.064;9.290;2023-12-22T05:44:41;5.97;;;1.35;;
43152;SDS011;28756;49.064;9.290;2023-12-22T05:47:07;4.70;;;1.20;;
43152;SDS011;28756;49.064;9.290;2023-12-22T05:49:33;3.03;;;0.80;;
43152;SDS011;28756;49.064;9.290;2023-12-22T05:51:59;4.25;;;1.10;;
43152;SDS011;28756;49.064;9.290;2023-12-22T05:54:24;2.55;;;0.80;;
43152;SDS011;28756;49.064;9.290;2023-12-22T05:56:50;5.10;;;1.08;;
43152;SDS011;28756;49.064;9.290;2023-12-22T05:59:17;3.22;;;1.00;;
43152;SDS011;28756;49.064;9.290;2023-12-22T06:01:42;3.55;;;0.90;;
43152;SDS011;28756;49.064;9.290;2023-12-22T06:04:08;3.55;;;1.00;;
43152;SDS011;28756;49.064;9.290;2023-12-22T06:06:34;2.83;;;0.80;;
43152;SDS011;28756;49.064;9.290;2023-12-22T06:09:01;3.45;;;1.00;;
43152;SDS011;28756;49.064;9.290;2023-12-22T06:11:26;3.65;;;1.05;;
43152;SDS011;28756;49.064;9.290;2023-12-22T06:13:52;5.55;;;1.52;;
43152;SDS011;28756;49.064;9.290;2023-12-22T06:16:17;4.10;;;1.08;;
43152;SDS011;28756;49.064;9.290;2023-12-22T06:18:43;3.83;;;1.20;;
43152;SDS011;28756;49.064;9.290;2023-12-22T06:21:09;5.22;;;1.02;;
43152;SDS011;28756;49.064;9.290;2023-12-22T06:23:35;7.72;;;1.65;;
43152;SDS011;28756;49.064;9.290;2023-12-22T06:26:01;6.28;;;1.58;;
43152;SDS011;28756;49.064;9.290;2023-12-22T06:28:32;4.65;;;1.10;;
43152;SDS011;28756;49.064;9.290;2023-12-22T06:30:58;6.00;;;1.38;;
43152;SDS011;28756;49.064;9.290;2023-12-22T06:33:23;7.30;;;1.83;;
43152;SDS011;28756;49.064;9.290;2023-12-22T06:35:49;9.15;;;2.05;;
43152;SDS011;28756;49.064;9.290;2023-12-22T06:38:18;5.85;;;1.40;;
43152;SDS011;28756;49.064;9.290;2023-12-22T06:40:44;11.13;;;2.03;;
43152;SDS011;28756;49.064;9.290;2023-12-22T06:43:11;11.20;;;1.98;;
43152;SDS011;28756;49.064;9.290;2023-12-22T06:45:37;8.38;;;1.98;;
43152;SDS011;28756;49.064;9.290;2023-12-22T06:48:05;6.80;;;1.98;;
43152;SDS011;28756;49.064;9.290;2023-12-22T06:50:31;11.63;;;2.30;;
43152;SDS011;28756;49.064;9.290;2023-12-22T06:52:56;6.95;;;1.77;;
43152;SDS011;28756;49.064;9.290;2023-12-22T06:55:22;12.75;;;2.00;;
43152;SDS011;28756;49.064;9.290;2023-12-22T06:57:48;9.48;;;2.10;;
43152;SDS011;28756;49.064;9.290;2023-12-22T07:00:14;9.30;;;1.83;;
43152;SDS011;28756;49.064;9.290;2023-12-22T07:02:40;9.25;;;1.85;;
43152;SDS011;28756;49.064;9.290;2023-12-22T07:07:35;8.32;;;1.73;;
43152;SDS011;28756;49.064;9.290;2023-12-22T07:10:01;8.32;;;1.70;;
43152;SDS011;28756;49.064;9.290;2023-12-22T07:12:27;9.57;;;1.95;;
43152;SDS011;28756;49.064;9.290;2023-12-22T07:14:53;7.90;;;1.90;;
43152;SDS011;28756;49.064;9.290;2023-12-22T07:17:19;5.30;;;1.60;;
43152;SDS011;28756;49.064;9.290;2023-12-22T07:19:44;6.13;;;1.67;;
43152;SDS011;28756;49.064;9.290;2023-12-22T07:22:10;9.10;;;2.10;;
43152;SDS011;28756;49.064;9.290;2023-12-22T07:24:35;6.72;;;1.92;;
43152;SDS011;28756;49.064;9.290;2023-12-22T07:27:01;7.13;;;2.42;;
43152;SDS011;28756;49.064;9.290;2023-12-22T07:29:27;6.20;;;1.73;;
43152;SDS011;28756;49.064;9.290;2023-12-22T07:31:53;7.72;;;1.80;;
43152;SDS011;28756;49.064;9.290;2023-12-22T07:34:19;6.45;;;1.83;;
43152;SDS011;28756;49.064;9.290;2023-12-22T07:36:47;6.72;;;1.58;;
43152;SDS011;28756;49.064;9.290;2023-12-22T07:39:12;7.32;;;1.50;;
43152;SDS011;28756;49.064;9.290;2023-12-22T07:41:39;5.65;;;1.50;;
43152;SDS011;28756;49.064;9.290;2023-12-22T07:44:05;7.30;;;1.30;;
43152;SDS011;28756;49.064;9.290;2023-12-22T07:46:30;7.22;;;1.50;;
43152;SDS011;28756;49.064;9.290;2023-12-22T07:48:56;5.90;;;1.40;;
43152;SDS011;28756;49.064;9.290;2023-12-22T07:51:22;6.43;;;1.70;;
43152;SDS011;28756;49.064;9.290;2023-12-22T07:53:47;10.07;;;2.05;;
43152;SDS011;28756;49.064;9.290;2023-12-22T07:56:13;5.18;;;1.45;;
43152;SDS011;28756;49.064;9.290;2023-12-22T07:58:38;6.07;;;1.70;;
43152;SDS011;28756;49.064;9.290;2023-12-22T08:01:07;10.65;;;1.83;;
43152;SDS011;28756;49.064;9.290;2023-12-22T08:03:33;6.82;;;1.80;;
43152;SDS011;28756;49.064;9.290;2023-12-22T08:05:58;5.25;;;1.40;;
43152;SDS011;28756;49.064;9.290;2023-12-22T08:08:24;8.60;;;1.80;;
43152;SDS011;28756;49.064;9.290;2023-12-22T08:10:49;4.38;;;1.58;;
43152;SDS011;28756;49.064;9.290;2023-12-22T08:13:15;3.83;;;1.27;;
43152;SDS011;28756;49.064;9.290;2023-12-22T08:15:42;8.15;;;1.80;;
43152;SDS011;28756;49.064;9.290;2023-12-22T08:18:08;8.07;;;1.73;;
43152;SDS011;28756;49.064;9.290;2023-12-22T08:20:34;9.20;;;1.75;;
43152;SDS011;28756;49.064;9.290;2023-12-22T08:23:00;6.43;;;1.50;;
43152;SDS011;28756;49.064;9.290;2023-12-22T08:25:25;6.85;;;1.80;;
43152;SDS011;28756;49.064;9.290;2023-12-22T08:27:51;6.55;;;1.20;;
43152;SDS011;28756;49.064;9.290;2023-12-22T08:30:17;5.18;;;1.30;;
43152;SDS011;28756;49.064;9.290;2023-12-22T08:32:42;5.53;;;1.52;;
43152;SDS011;28756;49.064;9.290;2023-12-22T08:35:08;6.45;;;1.70;;
43152;SDS011;28756;49.064;9.290;2023-12-22T08:37:34;5.18;;;1.60;;
43152;SDS011;28756;49.064;9.290;2023-12-22T08:39:59;9.05;;;2.05;;
43152;SDS011;28756;49.064;9.290;2023-12-22T08:42:25;7.70;;;1.48;;
43152;SDS011;28756;49.064;9.290;2023-12-22T08:44:51;9.02;;;1.63;;
43152;SDS011;28756;49.064;9.290;2023-12-22T08:47:17;7.18;;;1.80;;
43152;SDS011;28756;49.064;9.290;2023-12-22T08:49:43;7.10;;;1.55;;
43152;SDS011;28756;49.064;9.290;2023-12-22T08:52:08;8.73;;;1.90;;
43152;SDS011;28756;49.064;9.290;2023-12-22T08:54:34;6.20;;;1.60;;
43152;SDS011;28756;49.064;9.290;2023-12-22T08:57:00;4.47;;;1.40;;
43152;SDS011;28756;49.064;9.290;2023-12-22T08:59:27;7.22;;;1.75;;
43152;SDS011;28756;49.064;9.290;2023-12-22T09:01:52;8.35;;;2.33;;
43152;SDS011;28756;49.064;9.290;2023-12-22T09:04:18;9.05;;;2.30;;
43152;SDS011;28756;49.064;9.290;2023-12-22T09:06:46;11.13;;;2.00;;
43152;SDS011;28756;49.064;9.290;2023-12-22T09:09:11;12.55;;;2.15;;
43152;SDS011;28756;49.064;9.290;2023-12-22T09:11:37;7.50;;;1.60;;
43152;SDS011;28756;49.064;9.290;2023-12-22T09:14:04;9.38;;;2.15;;
43152;SDS011;28756;49.064;9.290;2023-12-22T09:16:31;6.82;;;2.20;;
43152;SDS011;28756;49.064;9.290;2023-12-22T09:18:56;9.30;;;2.22;;
43152;SDS011;28756;49.064;9.290;2023-12-22T09:21:22;11.32;;;2.33;;
43152;SDS011;28756;49.064;9.290;2023-12-22T09:23:47;14.15;;;3.00;;
43152;SDS011;28756;49.064;9.290;2023-12-22T09:26:15;13.10;;;2.60;;
43152;SDS011;28756;49.064;9.290;2023-12-22T09:28:41;14.40;;;3.15;;
43152;SDS011;28756;49.064;9.290;2023-12-22T09:31:07;12.90;;;2.70;;
43152;SDS011;28756;49.064;9.290;2023-12-22T09:33:33;13.52;;;2.97;;
43152;SDS011;28756;49.064;9.290;2023-12-22T09:35:58;13.80;;;2.92;;
43152;SDS011;28756;49.064;9.290;2023-12-22T09:38:25;14.40;;;2.90;;
43152;SDS011;28756;49.064;9.290;2023-12-22T09:40:50;15.18;;;3.15;;
43152;SDS011;28756;49.064;9.290;2023-12-22T09:43:16;12.73;;;2.88;;
43152;SDS011;28756;49.064;9.290;2023-12-22T09:45:45;16.45;;;2.70;;
43152;SDS011;28756;49.064;9.290;2023-12-22T09:48:11;15.57;;;3.35;;
43152;SDS011;28756;49.064;9.290;2023-12-22T09:50:45;13.25;;;3.20;;
43152;SDS011;28756;49.064;9.290;2023-12-22T09:53:12;11.80;;;2.70;;
43152;SDS011;28756;49.064;9.290;2023-12-22T09:55:39;11.18;;;2.70;;
43152;SDS011;28756;49.064;9.290;2023-12-22T09:58:07;10.80;;;2.63;;
43152;SDS011;28756;49.064;9.290;2023-12-22T10:00:33;18.58;;;3.30;;
43152;SDS011;28756;49.064;9.290;2023-12-22T10:03:01;10.85;;;2.45;;
43152;SDS011;28756;49.064;9.290;2023-12-22T10:05:34;14.90;;;2.92;;
43152;SDS011;28756;49.064;9.290;2023-12-22T10:08:00;14.57;;;3.40;;
43152;SDS011;28756;49.064;9.290;2023-12-22T10:10:30;11.77;;;2.35;;
43152;SDS011;28756;49.064;9.290;2023-12-22T10:12:56;15.50;;;2.88;;
43152;SDS011;28756;49.064;9.290;2023-12-22T10:15:22;15.23;;;2.90;;
43152;SDS011;28756;49.064;9.290;2023-12-22T10:17:54;15.20;;;2.85;;
43152;SDS011;28756;49.064;9.290;2023-12-22T10:20:19;12.40;;;2.60;;
43152;SDS011;28756;49.064;9.290;2023-12-22T10:22:45;13.52;;;2.70;;
43152;SDS011;28756;49.064;9.290;2023-12-22T10:25:14;13.75;;;2.80;;
43152;SDS011;28756;49.064;9.290;2023-12-22T10:27:41;17.08;;;2.97;;
43152;SDS011;28756;49.064;9.290;2023-12-22T10:30:08;14.45;;;3.00;;
43152;SDS011;28756;49.064;9.290;2023-12-22T10:32:39;14.80;;;2.63;;
43152;SDS011;28756;49.064;9.290;2023-12-22T10:35:07;13.20;;;2.85;;
43152;SDS011;28756;49.064;9.290;2023-12-22T10:37:35;12.35;;;2.80;;
43152;SDS011;28756;49.064;9.290;2023-12-22T10:40:03;10.60;;;2.55;;
43152;SDS011;28756;49.064;9.290;2023-12-22T10:42:30;15.10;;;3.22;;
43152;SDS011;28756;49.064;9.290;2023-12-22T10:44:56;24.20;;;4.07;;
43152;SDS011;28756;49.064;9.290;2023-12-22T10:47:22;11.82;;;2.70;;
43152;SDS011;28756;49.064;9.290;2023-12-22T10:49:48;12.85;;;2.58;;
43152;SDS011;28756;49.064;9.290;2023-12-22T10:52:17;13.77;;;2.90;;
43152;SDS011;28756;49.064;9.290;2023-12-22T10:54:43;13.43;;;3.10;;
43152;SDS011;28756;49.064;9.290;2023-12-22T10:57:10;13.50;;;2.83;;
43152;SDS011;28756;49.064;9.290;2023-12-22T10:59:36;12.52;;;2.22;;
43152;SDS011;28756;49.064;9.290;2023-12-22T11:02:06;11.15;;;2.58;;
43152;SDS011;28756;49.064;9.290;2023-12-22T11:04:34;12.25;;;2.88;;
43152;SDS011;28756;49.064;9.290;2023-12-22T11:07:02;14.77;;;2.60;;
43152;SDS011;28756;49.064;9.290;2023-12-22T11:09:29;17.08;;;3.20;;
43152;SDS011;28756;49.064;9.290;2023-12-22T11:11:57;15.73;;;2.90;;
43152;SDS011;28756;49.064;9.290;2023-12-22T11:14:22;12.27;;;2.63;;
43152;SDS011;28756;49.064;9.290;2023-12-22T11:16:50;12.43;;;2.50;;
43152;SDS011;28756;49.064;9.290;2023-12-22T11:19:16;10.38;;;2.22;;
43152;SDS011;28756;49.064;9.290;2023-12-22T11:21:43;10.80;;;2.50;;
43152;SDS011;28756;49.064;9.290;2023-12-22T11:24:11;12.93;;;2.85;;
43152;SDS011;28756;49.064;9.290;2023-12-22T11:26:39;10.02;;;2.42;;
43152;SDS011;28756;49.064;9.290;2023-12-22T11:29:07;8.50;;;2.25;;
43152;SDS011;28756;49.064;9.290;2023-12-22T11:31:37;9.00;;;2.17;;
43152;SDS011;28756;49.064;9.290;2023-12-22T11:34:05;12.45;;;2.38;;
43152;SDS011;28756;49.064;9.290;2023-12-22T11:36:32;9.60;;;2.55;;
43152;SDS011;28756;49.064;9.290;2023-12-22T11:38:59;10.63;;;1.90;;
43152;SDS011;28756;49.064;9.290;2023-12-22T11:41:25;8.98;;;1.98;;
43152;SDS011;28756;49.064;9.290;2023-12-22T11:43:54;9.70;;;2.05;;
43152;SDS011;28756;49.064;9.290;2023-12-22T11:46:21;7.47;;;1.88;;
43152;SDS011;28756;49.064;9.290;2023-12-22T11:48:49;7.82;;;1.60;;
43152;SDS011;28756;49.064;9.290;2023-12-22T11:51:16;10.23;;;2.20;;
43152;SDS011;28756;49.064;9.290;2023-12-22T11:53:42;7.60;;;1.73;;
43152;SDS011;28756;49.064;9.290;2023-12-22T11:56:08;7.35;;;1.70;;
43152;SDS011;28756;49.064;9.290;2023-12-22T12:01:06;7.53;;;1.55;;
43152;SDS011;28756;49.064;9.290;2023-12-22T12:03:35;5.53;;;1.30;;
43152;SDS011;28756;49.064;9.290;2023-12-22T12:06:14;7.43;;;1.60;;
43152;SDS011;28756;49.064;9.290;2023-12-22T12:08:46;5.00;;;1.45;;
43152;SDS011;28756;49.064;9.290;2023-12-22T12:11:13;6.05;;;1.42;;
43152;SDS011;28756;49.064;9.290;2023-12-22T12:13:43;4.93;;;1.38;;
43152;SDS011;28756;49.064;9.290;2023-12-22T12:16:13;5.03;;;1.23;;
43152;SDS011;28756;49.064;9.290;2023-12-22T12:18:39;5.35;;;1.23;;
43152;SDS011;28756;49.064;9.290;2023-12-22T12:21:09;6.05;;;1.10;;
43152;SDS011;28756;49.064;9.290;2023-12-22T12:23:35;4.25;;;1.40;;
43152;SDS011;28756;49.064;9.290;2023-12-22T12:26:01;4.38;;;1.10;;
43152;SDS011;28756;49.064;9.290;2023-12-22T12:28:31;4.22;;;1.13;;
43152;SDS011;28756;49.064;9.290;2023-12-22T12:30:58;4.22;;;1.60;;
43152;SDS011;28756;49.064;9.290;2023-12-22T12:33:27;2.25;;;0.85;;
43152;SDS011;28756;49.064;9.290;2023-12-22T12:35:54;3.65;;;0.90;;
43152;SDS011;28756;49.064;9.290;2023-12-22T12:38:23;3.63;;;1.10;;
43152;SDS011;28756;49.064;9.290;2023-12-22T12:41:07;3.33;;;0.80;;
43152;SDS011;28756;49.064;9.290;2023-12-22T12:43:34;3.53;;;0.90;;
43152;SDS011;28756;49.064;9.290;2023-12-22T12:46:04;3.38;;;1.13;;
43152;SDS011;28756;49.064;9.290;2023-12-22T12:48:30;2.47;;;1.00;;
43152;SDS011;28756;49.064;9.290;2023-12-22T12:51:03;1.52;;;0.70;;
43152;SDS011;28756;49.064;9.290;2023-12-22T12:53:30;4.35;;;0.90;;
43152;SDS011;28756;49.064;9.290;2023-12-22T12:55:56;2.17;;;0.77;;
43152;SDS011;28756;49.064;9.290;2023-12-22T12:58:26;3.75;;;0.93;;
43152;SDS011;28756;49.064;9.290;2023-12-22T13:00:54;2.05;;;0.75;;
43152;SDS011;28756;49.064;9.290;2023-12-22T13:03:29;2.05;;;0.60;;
43152;SDS011;28756;49.064;9.290;2023-12-22T13:06:05;1.05;;;0.60;;
43152;SDS011;28756;49.064;9.290;2023-12-22T13:08:31;1.92;;;0.65;;
43152;SDS011;28756;49.064;9.290;2023-12-22T13:11:00;1.42;;;0.70;;
43152;SDS011;28756;49.064;9.290;2023-12-22T13:13:26;2.50;;;0.88;;
43152;SDS011;28756;49.064;9.290;2023-12-22T13:15:52;1.30;;;0.70;;
43152;SDS011;28756;49.064;9.290;2023-12-22T13:18:18;3.28;;;0.95;;
43152;SDS011;28756;49.064;9.290;2023-12-22T13:20:43;2.55;;;0.70;;
43152;SDS011;28756;49.064;9.290;2023-12-22T13:23:09;1.67;;;0.60;;
43152;SDS011;28756;49.064;9.290;2023-12-22T13:25:38;1.08;;;0.60;;
43152;SDS011;28756;49.064;9.290;2023-12-22T13:28:04;1.55;;;0.60;;
43152;SDS011;28756;49.064;9.290;2023-12-22T13:33:05;1.73;;;0.50;;
43152;SDS011;28756;49.064;9.290;2023-12-22T13:35:31;1.88;;;0.70;;
43152;SDS011;28756;49.064;9.290;2023-12-22T13:37:56;2.67;;;0.70;;
43152;SDS011;28756;49.064;9.290;2023-12-22T13:40:23;2.08;;;0.60;;
43152;SDS011;28756;49.064;9.290;2023-12-22T13:42:58;1.70;;;0.50;;
43152;SDS011;28756;49.064;9.290;2023-12-22T13:45:26;2.20;;;0.65;;
43152;SDS011;28756;49.064;9.290;2023-12-22T13:47:52;1.88;;;0.60;;
43152;SDS011;28756;49.064;9.290;2023-12-22T13:50:18;1.95;;;0.60;;
43152;SDS011;28756;49.064;9.290;2023-12-22T13:52:44;2.15;;;0.65;;
43152;SDS011;28756;49.064;9.290;2023-12-22T13:55:11;2.33;;;0.65;;
43152;SDS011;28756;49.064;9.290;2023-12-22T13:57:40;1.83;;;0.70;;
43152;SDS011;28756;49.064;9.290;2023-12-22T14:02:47;1.30;;;0.60;;
43152;SDS011;28756;49.064;9.290;2023-12-22T14:05:17;1.95;;;0.57;;
43152;SDS011;28756;49.064;9.290;2023-12-22T14:07:43;2.55;;;0.68;;
43152;SDS011;28756;49.064;9.290;2023-12-22T14:10:09;1.20;;;0.50;;
43152;SDS011;28756;49.064;9.290;2023-12-22T14:12:39;1.00;;;0.43;;
43152;SDS011;28756;49.064;9.290;2023-12-22T14:15:08;1.13;;;0.40;;
43152;SDS011;28756;49.064;9.290;2023-12-22T14:17:34;2.72;;;0.70;;
43152;SDS011;28756;49.064;9.290;2023-12-22T14:20:00;1.23;;;0.60;;
43152;SDS011;28756;49.064;9.290;2023-12-22T14:22:25;0.68;;;0.47;;
43152;SDS011;28756;49.064;9.290;2023-12-22T14:24:51;1.10;;;0.50;;
43152;SDS011;28756;49.064;9.290;2023-12-22T14:27:17;1.00;;;0.60;;
43152;SDS011;28756;49.064;9.290;2023-12-22T14:29:43;1.05;;;0.60;;
43152;SDS011;28756;49.064;9.290;2023-12-22T14:32:12;0.70;;;0.50;;
43152;SDS011;28756;49.064;9.290;2023-12-22T14:34:39;1.83;;;0.50;;
43152;SDS011;28756;49.064;9.290;2023-12-22T14:37:08;0.70;;;0.50;;
43152;SDS011;28756;49.064;9.290;2023-12-22T14:39:33;0.93;;;0.60;;
43152;SDS011;28756;49.064;9.290;2023-12-22T14:42:00;1.63;;;0.60;;
43152;SDS011;28756;49.064;9.290;2023-12-22T14:44:28;1.83;;;0.55;;
43152;SDS011;28756;49.064;9.290;2023-12-22T14:46:53;0.82;;;0.50;;
43152;SDS011;28756;49.064;9.290;2023-12-22T14:49:19;1.67;;;0.60;;
43152;SDS011;28756;49.064;9.290;2023-12-22T14:51:45;1.55;;;0.43;;
43152;SDS011;28756;49.064;9.290;2023-12-22T14:54:16;0.75;;;0.52;;
43152;SDS011;28756;49.064;9.290;2023-12-22T14:56:42;0.70;;;0.50;;
43152;SDS011;28756;49.064;9.290;2023-12-22T14:59:11;0.95;;;0.40;;